sensor_id;sensor_type;location;lat;lon;timestamp;temperature;humidity
53146;DHT22;39042;53.150;5.898;2022-12-18T06:03:50;-5.40;99.90
53146;DHT22;39042;53.150;5.898;2022-12-18T06:06:20;-5.50;99.90
53146;DHT22;39042;53.150;5.898;2022-12-18T06:08:47;-5.50;99.90
53146;DHT22;39042;53.150;5.898;2022-12-18T06:11:15;-5.60;99.90
53146;DHT22;39042;53.150;5.898;2022-12-18T06:13:41;-5.50;99.90
53146;DHT22;39042;53.150;5.898;2022-12-18T06:16:07;-5.60;99.90
53146;DHT22;39042;53.150;5.898;2022-12-18T06:18:33;-5.60;99.90
53146;DHT22;39042;53.150;5.898;2022-12-18T06:20:59;-5.60;99.90
53146;DHT22;39042;53.150;5.898;2022-12-18T06:23:25;-5.60;99.90
53146;DHT22;39042;53.150;5.898;2022-12-18T06:25:51;-5.60;99.90
53146;DHT22;39042;53.150;5.898;2022-12-18T06:28:16;-5.70;99.90
53146;DHT22;39042;53.150;5.898;2022-12-18T06:30:46;-5.70;99.90
53146;DHT22;39042;53.150;5.898;2022-12-18T06:33:12;-5.70;99.90
53146;DHT22;39042;53.150;5.898;2022-12-18T06:35:37;-5.70;99.90
53146;DHT22;39042;53.150;5.898;2022-12-18T06:38:03;-5.70;99.90
53146;DHT22;39042;53.150;5.898;2022-12-18T06:40:29;-5.80;99.90
53146;DHT22;39042;53.150;5.898;2022-12-18T06:42:55;-5.80;99.90
53146;DHT22;39042;53.150;5.898;2022-12-18T06:45:20;-5.80;99.90
53146;DHT22;39042;53.150;5.898;2022-12-18T06:47:46;-5.80;99.90
53146;DHT22;39042;53.150;5.898;2022-12-18T06:50:12;-5.80;99.90
53146;DHT22;39042;53.150;5.898;2022-12-18T06:52:38;-5.80;99.90
53146;DHT22;39042;53.150;5.898;2022-12-18T06:55:05;-5.80;99.90
53146;DHT22;39042;53.150;5.898;2022-12-18T06:57:30;-5.80;99.90
53146;DHT22;39042;53.150;5.898;2022-12-18T06:59:56;-5.90;99.90
53146;DHT22;39042;53.150;5.898;2022-12-18T07:02:22;-5.90;99.90
53146;DHT22;39042;53.150;5.898;2022-12-18T07:04:50;-5.90;99.90
53146;DHT22;39042;53.150;5.898;2022-12-18T07:07:16;-5.90;99.90
53146;DHT22;39042;53.150;5.898;2022-12-18T07:09:42;-5.90;99.90
53146;DHT22;39042;53.150;5.898;2022-12-18T07:12:07;-5.90;99.90
53146;DHT22;39042;53.150;5.898;2022-12-18T07:14:33;-5.90;99.90
53146;DHT22;39042;53.150;5.898;2022-12-18T07:16:59;-5.90;99.90
53146;DHT22;39042;53.150;5.898;2022-12-18T07:19:25;-5.90;99.90
53146;DHT22;39042;53.150;5.898;2022-12-18T07:21:50;-5.90;99.90
53146;DHT22;39042;53.150;5.898;2022-12-18T07:24:16;-5.90;99.90
53146;DHT22;39042;53.150;5.898;2022-12-18T07:26:45;-5.90;99.90
53146;DHT22;39042;53.150;5.898;2022-12-18T07:29:10;-5.90;99.90
53146;DHT22;39042;53.150;5.898;2022-12-18T07:31:36;-5.80;99.90
53146;DHT22;39042;53.150;5.898;2022-12-18T07:34:01;-5.80;99.90
53146;DHT22;39042;53.150;5.898;2022-12-18T07:36:27;-5.80;99.90
53146;DHT22;39042;53.150;5.898;2022-12-18T07:38:53;-5.80;99.90
53146;DHT22;39042;53.150;5.898;2022-12-18T07:41:19;-5.80;99.90
53146;DHT22;39042;53.150;5.898;2022-12-18T07:43:45;-5.80;99.90
53146;DHT22;39042;53.150;5.898;2022-12-18T07:46:11;-5.70;99.90
53146;DHT22;39042;53.150;5.898;2022-12-18T07:48:42;-5.70;99.90
53146;DHT22;39042;53.150;5.898;2022-12-18T07:51:08;-5.80;99.90
53146;DHT22;39042;53.150;5.898;2022-12-18T07:53:35;-5.80;99.90
53146;DHT22;39042;53.150;5.898;2022-12-18T07:56:05;-5.80;99.90
53146;DHT22;39042;53.150;5.898;2022-12-18T07:58:31;-5.80;99.90
53146;DHT22;39042;53.150;5.898;2022-12-18T08:01:07;-5.80;99.90
53146;DHT22;39042;53.150;5.898;2022-12-18T08:03:33;-5.70;99.90
53146;DHT22;39042;53.150;5.898;2022-12-18T08:06:05;-5.70;99.90
53146;DHT22;39042;53.150;5.898;2022-12-18T08:08:32;-5.70;99.90
53146;DHT22;39042;53.150;5.898;2022-12-18T08:10:57;-5.60;99.90
53146;DHT22;39042;53.150;5.898;2022-12-18T08:13:23;-5.60;99.90
53146;DHT22;39042;53.150;5.898;2022-12-18T08:15:59;-5.50;99.90
53146;DHT22;39042;53.150;5.898;2022-12-18T08:18:25;-5.40;99.90
53146;DHT22;39042;53.150;5.898;2022-12-18T08:20:51;-5.40;99.90
53146;DHT22;39042;53.150;5.898;2022-12-18T08:23:16;-5.30;99.90
53146;DHT22;39042;53.150;5.898;2022-12-18T08:25:42;-5.30;99.90
53146;DHT22;39042;53.150;5.898;2022-12-18T08:28:08;-5.20;99.90
53146;DHT22;39042;53.150;5.898;2022-12-18T08:30:33;-5.20;99.90
53146;DHT22;39042;53.150;5.898;2022-12-18T08:32:59;-5.10;99.90
53146;DHT22;39042;53.150;5.898;2022-12-18T08:35:25;-5.10;99.90
53146;DHT22;39042;53.150;5.898;2022-12-18T08:37:50;-5.00;99.90
53146;DHT22;39042;53.150;5.898;2022-12-18T18:18:39;-0.20;99.90
53146;DHT22;39042;53.150;5.898;2022-12-18T18:21:05;-0.10;99.90
53146;DHT22;39042;53.150;5.898;2022-12-18T18:23:31;-0.10;99.90
53146;DHT22;39042;53.150;5.898;2022-12-18T18:26:04;-0.10;99.90
53146;DHT22;39042;53.150;5.898;2022-12-18T18:28:30;-0.10;99.90
53146;DHT22;39042;53.150;5.898;2022-12-18T18:30:56;-0.10;99.90
53146;DHT22;39042;53.150;5.898;2022-12-18T18:33:21;-0.10;99.90
53146;DHT22;39042;53.150;5.898;2022-12-18T18:35:47;-0.10;99.90
53146;DHT22;39042;53.150;5.898;2022-12-18T18:38:13;-0.10;99.90
53146;DHT22;39042;53.150;5.898;2022-12-18T18:40:38;0.00;99.90
53146;DHT22;39042;53.150;5.898;2022-12-18T18:43:04;0.00;99.90
53146;DHT22;39042;53.150;5.898;2022-12-18T18:45:30;0.00;99.90
53146;DHT22;39042;53.150;5.898;2022-12-18T18:47:55;0.00;99.90
53146;DHT22;39042;53.150;5.898;2022-12-18T18:50:21;0.00;99.90
53146;DHT22;39042;53.150;5.898;2022-12-18T18:52:47;0.00;99.90
53146;DHT22;39042;53.150;5.898;2022-12-18T18:55:13;0.00;99.90
53146;DHT22;39042;53.150;5.898;2022-12-18T18:57:38;0.10;99.90
53146;DHT22;39042;53.150;5.898;2022-12-18T19:00:04;0.10;99.90
53146;DHT22;39042;53.150;5.898;2022-12-18T19:02:30;0.10;99.90
53146;DHT22;39042;53.150;5.898;2022-12-18T19:04:55;0.10;99.90
53146;DHT22;39042;53.150;5.898;2022-12-18T19:07:22;0.10;99.90
53146;DHT22;39042;53.150;5.898;2022-12-18T19:09:47;0.10;99.90
53146;DHT22;39042;53.150;5.898;2022-12-18T19:12:16;0.10;99.90
53146;DHT22;39042;53.150;5.898;2022-12-18T19:15:00;0.20;99.90
53146;DHT22;39042;53.150;5.898;2022-12-18T19:17:27;0.20;99.90
53146;DHT22;39042;53.150;5.898;2022-12-18T19:19:52;0.20;99.90
53146;DHT22;39042;53.150;5.898;2022-12-18T19:22:18;0.20;99.90
53146;DHT22;39042;53.150;5.898;2022-12-18T19:24:44;0.20;99.90
53146;DHT22;39042;53.150;5.898;2022-12-18T19:27:10;0.20;99.90
53146;DHT22;39042;53.150;5.898;2022-12-18T19:29:35;0.20;99.90
53146;DHT22;39042;53.150;5.898;2022-12-18T19:32:02;0.20;99.90
53146;DHT22;39042;53.150;5.898;2022-12-18T19:34:27;0.20;99.90
53146;DHT22;39042;53.150;5.898;2022-12-18T19:36:53;0.30;99.90
53146;DHT22;39042;53.150;5.898;2022-12-18T19:39:19;0.20;99.90
53146;DHT22;39042;53.150;5.898;2022-12-18T19:41:45;0.30;99.90
53146;DHT22;39042;53.150;5.898;2022-12-18T19:44:11;0.30;99.90
53146;DHT22;39042;53.150;5.898;2022-12-18T19:46:37;0.30;99.90
53146;DHT22;39042;53.150;5.898;2022-12-18T19:49:02;0.20;99.90
53146;DHT22;39042;53.150;5.898;2022-12-18T19:51:29;0.30;99.90
53146;DHT22;39042;53.150;5.898;2022-12-18T19:53:55;0.30;99.90
53146;DHT22;39042;53.150;5.898;2022-12-18T19:56:22;0.30;99.90
53146;DHT22;39042;53.150;5.898;2022-12-18T19:58:49;0.30;99.90
53146;DHT22;39042;53.150;5.898;2022-12-18T20:01:16;0.30;99.90
53146;DHT22;39042;53.150;5.898;2022-12-18T20:03:41;0.30;99.90
53146;DHT22;39042;53.150;5.898;2022-12-18T20:06:11;0.30;99.90
53146;DHT22;39042;53.150;5.898;2022-12-18T20:08:37;0.30;99.90
53146;DHT22;39042;53.150;5.898;2022-12-18T20:11:03;0.30;99.90
53146;DHT22;39042;53.150;5.898;2022-12-18T20:13:28;0.40;99.90
53146;DHT22;39042;53.150;5.898;2022-12-18T20:15:54;0.40;99.90
53146;DHT22;39042;53.150;5.898;2022-12-18T20:18:20;0.40;99.90
53146;DHT22;39042;53.150;5.898;2022-12-18T20:20:45;0.40;99.90
53146;DHT22;39042;53.150;5.898;2022-12-18T20:23:11;0.40;99.90
53146;DHT22;39042;53.150;5.898;2022-12-18T20:25:37;0.40;99.90
53146;DHT22;39042;53.150;5.898;2022-12-18T20:28:03;0.40;99.90
53146;DHT22;39042;53.150;5.898;2022-12-18T20:30:29;0.40;99.90
53146;DHT22;39042;53.150;5.898;2022-12-18T20:32:54;0.40;99.90
53146;DHT22;39042;53.150;5.898;2022-12-18T20:35:20;0.40;99.90
53146;DHT22;39042;53.150;5.898;2022-12-18T20:37:46;0.40;99.90
53146;DHT22;39042;53.150;5.898;2022-12-18T20:40:11;0.40;99.90
53146;DHT22;39042;53.150;5.898;2022-12-18T20:42:37;0.40;99.90
53146;DHT22;39042;53.150;5.898;2022-12-18T20:45:03;0.40;99.90
53146;DHT22;39042;53.150;5.898;2022-12-18T20:47:29;0.50;99.90
53146;DHT22;39042;53.150;5.898;2022-12-18T20:49:54;0.40;99.90
53146;DHT22;39042;53.150;5.898;2022-12-18T20:52:20;0.50;99.90
53146;DHT22;39042;53.150;5.898;2022-12-18T20:54:46;0.50;99.90
53146;DHT22;39042;53.150;5.898;2022-12-18T20:57:12;0.50;99.90
53146;DHT22;39042;53.150;5.898;2022-12-18T20:59:37;0.50;99.90
53146;DHT22;39042;53.150;5.898;2022-12-18T21:02:03;0.50;99.90
53146;DHT22;39042;53.150;5.898;2022-12-18T21:04:29;0.60;99.90
53146;DHT22;39042;53.150;5.898;2022-12-18T21:06:55;0.60;99.90
53146;DHT22;39042;53.150;5.898;2022-12-18T21:09:21;0.60;99.90
53146;DHT22;39042;53.150;5.898;2022-12-18T21:11:47;0.60;99.90
53146;DHT22;39042;53.150;5.898;2022-12-18T21:14:31;0.60;99.90
53146;DHT22;39042;53.150;5.898;2022-12-18T21:16:57;0.60;99.90
53146;DHT22;39042;53.150;5.898;2022-12-18T21:19:25;0.60;99.90
53146;DHT22;39042;53.150;5.898;2022-12-18T21:21:52;0.70;99.90
53146;DHT22;39042;53.150;5.898;2022-12-18T21:24:18;0.70;99.90
53146;DHT22;39042;53.150;5.898;2022-12-18T21:26:44;0.70;99.90
53146;DHT22;39042;53.150;5.898;2022-12-18T21:29:11;0.70;99.90
53146;DHT22;39042;53.150;5.898;2022-12-18T21:31:37;0.70;99.90
53146;DHT22;39042;53.150;5.898;2022-12-18T21:34:03;0.70;99.90
53146;DHT22;39042;53.150;5.898;2022-12-18T21:36:30;0.80;99.90
53146;DHT22;39042;53.150;5.898;2022-12-18T21:38:57;0.80;99.90
53146;DHT22;39042;53.150;5.898;2022-12-18T21:41:23;0.80;99.90
53146;DHT22;39042;53.150;5.898;2022-12-18T21:44:07;0.80;99.90
53146;DHT22;39042;53.150;5.898;2022-12-18T21:46:39;0.80;99.90
53146;DHT22;39042;53.150;5.898;2022-12-18T21:49:05;0.80;99.90
53146;DHT22;39042;53.150;5.898;2022-12-18T21:51:31;0.80;99.90
53146;DHT22;39042;53.150;5.898;2022-12-18T21:53:57;0.80;99.90
53146;DHT22;39042;53.150;5.898;2022-12-18T21:56:23;0.80;99.90
53146;DHT22;39042;53.150;5.898;2022-12-18T21:58:49;0.80;99.90
53146;DHT22;39042;53.150;5.898;2022-12-18T22:01:15;0.80;99.90
53146;DHT22;39042;53.150;5.898;2022-12-18T22:03:43;0.80;99.90
53146;DHT22;39042;53.150;5.898;2022-12-18T22:06:10;0.90;99.90
53146;DHT22;39042;53.150;5.898;2022-12-18T22:08:36;0.80;99.90
53146;DHT22;39042;53.150;5.898;2022-12-18T22:11:01;0.80;99.90
53146;DHT22;39042;53.150;5.898;2022-12-18T22:13:27;0.90;99.90
53146;DHT22;39042;53.150;5.898;2022-12-18T22:15:53;0.80;99.90
53146;DHT22;39042;53.150;5.898;2022-12-18T22:18:18;0.80;99.90
53146;DHT22;39042;53.150;5.898;2022-12-18T22:20:45;0.80;99.90
53146;DHT22;39042;53.150;5.898;2022-12-18T22:23:12;0.80;99.90
53146;DHT22;39042;53.150;5.898;2022-12-18T22:25:38;0.90;99.90
53146;DHT22;39042;53.150;5.898;2022-12-18T22:28:04;0.90;99.90
53146;DHT22;39042;53.150;5.898;2022-12-18T22:30:48;0.90;99.90
53146;DHT22;39042;53.150;5.898;2022-12-18T22:33:14;0.90;99.90
53146;DHT22;39042;53.150;5.898;2022-12-18T22:35:39;0.90;99.90
53146;DHT22;39042;53.150;5.898;2022-12-18T22:38:05;0.90;99.90
53146;DHT22;39042;53.150;5.898;2022-12-18T22:40:31;0.90;99.90
53146;DHT22;39042;53.150;5.898;2022-12-18T22:42:56;0.90;99.90
53146;DHT22;39042;53.150;5.898;2022-12-18T22:45:23;0.90;99.90
53146;DHT22;39042;53.150;5.898;2022-12-18T22:47:49;0.90;99.90
53146;DHT22;39042;53.150;5.898;2022-12-18T22:50:14;0.80;99.90
53146;DHT22;39042;53.150;5.898;2022-12-18T22:52:40;0.80;99.90
53146;DHT22;39042;53.150;5.898;2022-12-18T22:55:06;0.80;99.90
53146;DHT22;39042;53.150;5.898;2022-12-18T22:57:32;0.80;99.90
53146;DHT22;39042;53.150;5.898;2022-12-18T22:59:58;0.80;99.90
53146;DHT22;39042;53.150;5.898;2022-12-18T23:02:24;0.80;99.90
53146;DHT22;39042;53.150;5.898;2022-12-18T23:04:49;0.70;99.90
53146;DHT22;39042;53.150;5.898;2022-12-18T23:07:15;0.70;99.90
53146;DHT22;39042;53.150;5.898;2022-12-18T23:09:41;0.80;99.90
53146;DHT22;39042;53.150;5.898;2022-12-18T23:12:07;0.80;99.90
53146;DHT22;39042;53.150;5.898;2022-12-18T23:14:32;0.70;99.90
53146;DHT22;39042;53.150;5.898;2022-12-18T23:16:58;0.70;99.90
53146;DHT22;39042;53.150;5.898;2022-12-18T23:19:24;0.70;99.90
53146;DHT22;39042;53.150;5.898;2022-12-18T23:21:49;0.70;99.90
53146;DHT22;39042;53.150;5.898;2022-12-18T23:24:15;0.70;99.90
53146;DHT22;39042;53.150;5.898;2022-12-18T23:26:41;0.70;99.90
53146;DHT22;39042;53.150;5.898;2022-12-18T23:29:06;0.70;99.90
53146;DHT22;39042;53.150;5.898;2022-12-18T23:31:34;0.70;99.90
53146;DHT22;39042;53.150;5.898;2022-12-18T23:34:00;0.70;99.90
53146;DHT22;39042;53.150;5.898;2022-12-18T23:36:26;0.70;99.90
53146;DHT22;39042;53.150;5.898;2022-12-18T23:38:53;0.70;99.90
53146;DHT22;39042;53.150;5.898;2022-12-18T23:41:20;0.70;99.90
53146;DHT22;39042;53.150;5.898;2022-12-18T23:43:46;0.70;99.90
53146;DHT22;39042;53.150;5.898;2022-12-18T23:46:15;0.70;99.90
53146;DHT22;39042;53.150;5.898;2022-12-18T23:48:41;0.80;99.90
53146;DHT22;39042;53.150;5.898;2022-12-18T23:51:08;0.80;99.90
53146;DHT22;39042;53.150;5.898;2022-12-18T23:53:34;0.80;99.90
53146;DHT22;39042;53.150;5.898;2022-12-18T23:56:00;0.80;99.90
53146;DHT22;39042;53.150;5.898;2022-12-18T23:58:26;0.80;99.90
